createdAt,value
2017-12-03T00:00:45.903Z,14.73
2017-12-03T00:01:47.203Z,13.50
2017-12-03T00:02:48.787Z,13.53
2017-12-03T00:03:50.073Z,13.67
2017-12-03T00:04:52.123Z,13.20
2017-12-03T00:05:54.171Z,14.07
2017-12-03T00:06:55.485Z,14.47
2017-12-03T00:07:57.555Z,13.53
2017-12-03T00:08:58.860Z,14.80
2017-12-03T00:10:00.174Z,13.47
2017-12-03T00:11:02.223Z,13.20
2017-12-03T00:12:03.507Z,13.90
2017-12-03T00:13:05.175Z,14.53
2017-12-03T00:14:06.523Z,14.00
2017-12-03T00:15:07.832Z,13.37
2017-12-03T00:16:09.153Z,14.60
2017-12-03T00:17:11.227Z,13.47
2017-12-03T00:18:13.291Z,14.60
2017-12-03T00:19:15.342Z,13.07
2017-12-03T00:20:17.387Z,14.13
2017-12-03T00:21:18.707Z,13.40
2017-12-03T00:22:19.996Z,13.30
2017-12-03T00:23:22.335Z,13.47
2017-12-03T00:24:24.383Z,13.53
2017-12-03T00:25:27.171Z,13.80
2017-12-03T00:26:28.471Z,13.60
2017-12-03T00:27:29.774Z,13.13
2017-12-03T00:28:31.839Z,14.93
2017-12-03T00:29:33.898Z,15.10
2017-12-03T00:30:35.207Z,15.07
2017-12-03T00:31:36.507Z,13.90
2017-12-03T00:32:37.803Z,12.73
2017-12-03T00:33:39.359Z,14.90
2017-12-03T00:34:40.673Z,14.17
2017-12-03T00:35:41.986Z,13.60
2017-12-03T00:36:43.294Z,14.40
2017-12-03T00:37:45.351Z,14.23
2017-12-03T00:38:46.917Z,13.93
2017-12-03T00:39:48.946Z,15.10
2017-12-03T00:40:50.259Z,13.27
2017-12-03T00:41:51.549Z,13.17
2017-12-03T00:42:53.575Z,13.40
2017-12-03T00:43:54.895Z,15.37
2017-12-03T00:44:56.195Z,14.90
2017-12-03T00:45:57.527Z,15.13
2017-12-03T00:46:58.875Z,15.07
2017-12-03T00:48:00.175Z,14.57
2017-12-03T00:49:01.479Z,14.93
2017-12-03T00:50:03.515Z,14.73
2017-12-03T00:51:05.572Z,13.97
2017-12-03T00:52:07.275Z,14.50
2017-12-03T00:53:08.567Z,13.37
2017-12-03T00:54:10.059Z,13.53
2017-12-03T00:55:11.375Z,13.23
2017-12-03T00:56:13.395Z,13.37
2017-12-03T00:57:14.713Z,13.50
2017-12-03T00:58:16.023Z,14.27
2017-12-03T00:59:18.068Z,13.93
2017-12-03T01:00:19.375Z,15.33
2017-12-03T01:01:20.692Z,14.70
2017-12-03T01:02:21.994Z,14.47
2017-12-03T01:03:23.311Z,14.30
2017-12-03T01:04:24.935Z,14.27
2017-12-03T01:05:26.224Z,14.30
2017-12-03T01:06:27.529Z,15.97
2017-12-03T01:07:28.859Z,13.77
2017-12-03T01:08:30.203Z,14.23
2017-12-03T01:09:31.686Z,13.67
2017-12-03T01:10:32.983Z,14.63
2017-12-03T01:11:34.287Z,13.63
2017-12-03T01:12:35.643Z,14.67
2017-12-03T01:13:37.717Z,13.97
2017-12-03T01:14:39.771Z,13.87
2017-12-03T01:15:41.851Z,14.00
2017-12-03T01:16:43.135Z,13.30
2017-12-03T01:17:44.464Z,13.30
2017-12-03T01:18:45.780Z,13.87
2017-12-03T01:19:47.319Z,13.43
2017-12-03T01:20:49.376Z,15.37
2017-12-03T01:21:51.464Z,14.80
2017-12-03T01:22:52.793Z,14.27
2017-12-03T01:23:54.091Z,14.00
2017-12-03T01:24:55.451Z,14.47
2017-12-03T01:25:56.803Z,14.90
2017-12-03T01:26:58.845Z,14.73
2017-12-03T01:28:00.191Z,16.50
2017-12-03T01:29:01.595Z,14.00
2017-12-03T01:30:03.141Z,15.00
2017-12-03T01:31:04.451Z,16.17
2017-12-03T01:32:06.479Z,14.20
2017-12-03T01:33:07.829Z,14.87
2017-12-03T01:34:09.127Z,14.53
2017-12-03T01:35:10.744Z,13.83
2017-12-03T01:36:12.071Z,13.77
2017-12-03T01:37:13.367Z,14.53
2017-12-03T01:38:14.671Z,14.50
2017-12-03T01:39:16.721Z,14.20
2017-12-03T01:40:18.795Z,15.07
2017-12-03T01:41:20.863Z,16.40
2017-12-03T01:42:22.923Z,17.00
2017-12-03T01:43:24.980Z,14.60
2017-12-03T01:44:27.041Z,13.43
2017-12-03T01:45:28.723Z,13.33
2017-12-03T01:46:30.067Z,14.17
2017-12-03T01:47:31.395Z,12.97
2017-12-03T01:48:32.709Z,14.70
2017-12-03T01:49:34.755Z,14.37
2017-12-03T01:50:36.255Z,14.03
2017-12-03T01:51:37.555Z,14.10
2017-12-03T01:52:39.629Z,13.90
2017-12-03T01:53:40.952Z,13.40
2017-12-03T01:54:43.028Z,15.13
2017-12-03T01:55:45.431Z,14.60
2017-12-03T01:56:46.771Z,15.03
2017-12-03T01:57:48.144Z,14.70
2017-12-03T01:58:49.542Z,14.77
2017-12-03T01:59:50.855Z,15.40
2017-12-03T02:00:52.457Z,14.53
2017-12-03T02:01:53.775Z,14.03
2017-12-03T02:02:55.103Z,14.50
2017-12-03T02:03:57.165Z,13.60
2017-12-03T02:04:59.220Z,15.00
2017-12-03T02:06:01.327Z,13.90
2017-12-03T02:07:02.711Z,14.30
2017-12-03T02:08:04.061Z,13.23
2017-12-03T02:09:05.397Z,15.63
2017-12-03T02:10:06.755Z,13.17
2017-12-03T02:11:09.159Z,12.33
2017-12-03T02:12:10.485Z,12.93
2017-12-03T02:13:12.551Z,12.83
2017-12-03T02:14:13.891Z,11.83
2017-12-03T02:15:15.219Z,11.87
2017-12-03T02:16:17.537Z,12.60
2017-12-03T02:17:19.631Z,13.53
2017-12-03T02:18:21.001Z,14.43
2017-12-03T02:19:23.071Z,13.83
2017-12-03T02:20:24.399Z,13.33
2017-12-03T02:21:26.742Z,13.83
2017-12-03T02:22:28.071Z,13.90
2017-12-03T02:23:29.395Z,14.27
2017-12-03T02:24:30.707Z,14.53
2017-12-03T02:25:32.026Z,14.03
2017-12-03T02:26:33.526Z,13.70
2017-12-03T02:27:34.836Z,13.00
2017-12-03T02:28:36.865Z,12.90
2017-12-03T02:29:38.944Z,12.70
2017-12-03T02:30:41.006Z,12.23
2017-12-03T02:31:43.295Z,12.27
2017-12-03T02:32:44.584Z,12.97
2017-12-03T02:33:45.904Z,13.07
2017-12-03T02:34:47.203Z,12.93
2017-12-03T02:35:49.267Z,12.53
2017-12-03T02:36:50.851Z,12.27
2017-12-03T02:37:52.181Z,12.37
2017-12-03T02:38:54.227Z,11.80
2017-12-03T02:39:55.563Z,12.67
2017-12-03T02:40:57.632Z,12.27
2017-12-03T02:41:59.214Z,11.93
2017-12-03T02:43:00.577Z,12.23
2017-12-03T02:44:01.876Z,12.50
2017-12-03T02:45:03.207Z,11.90
2017-12-03T02:46:05.274Z,12.63
2017-12-03T02:47:06.903Z,11.80
2017-12-03T02:48:08.948Z,11.97
2017-12-03T02:49:10.271Z,11.87
2017-12-03T02:50:11.591Z,11.83
2017-12-03T02:51:12.915Z,11.37
2017-12-03T02:52:14.264Z,11.93
2017-12-03T02:53:15.608Z,11.67
2017-12-03T02:54:16.923Z,10.93
2017-12-03T02:55:18.991Z,11.97
2017-12-03T02:56:21.027Z,11.60
2017-12-03T02:57:22.608Z,11.10
2017-12-03T02:58:24.694Z,11.67
2017-12-03T02:59:26.033Z,11.73
2017-12-03T03:00:28.163Z,12.67
2017-12-03T03:01:30.211Z,11.93
2017-12-03T03:02:31.776Z,10.93
2017-12-03T03:03:33.883Z,11.87
2017-12-03T03:04:35.202Z,11.30
2017-12-03T03:05:36.506Z,10.97
2017-12-03T03:06:37.831Z,11.73
2017-12-03T03:07:39.441Z,10.80
2017-12-03T03:08:40.760Z,10.97
2017-12-03T03:09:42.820Z,11.20
2017-12-03T03:10:44.903Z,10.97
2017-12-03T03:11:46.240Z,10.70
2017-12-03T03:12:47.903Z,11.23
2017-12-03T03:13:49.214Z,11.57
2017-12-03T03:14:51.259Z,11.57
2017-12-03T03:15:52.603Z,11.77
2017-12-03T03:16:53.925Z,13.53
2017-12-03T03:17:55.559Z,12.27
2017-12-03T03:18:56.914Z,12.00
2017-12-03T03:19:58.276Z,11.37
2017-12-03T03:20:59.611Z,10.50
2017-12-03T03:22:00.907Z,10.13
2017-12-03T03:23:02.407Z,10.73
2017-12-03T03:24:03.735Z,10.57
2017-12-03T03:25:05.139Z,10.57
2017-12-03T03:26:06.468Z,10.93
2017-12-03T03:27:08.551Z,11.07
2017-12-03T03:28:10.099Z,10.87
2017-12-03T03:29:11.413Z,10.80
2017-12-03T03:30:13.455Z,10.47
2017-12-03T03:31:14.760Z,10.87
2017-12-03T03:32:16.111Z,9.70
2017-12-03T03:33:17.751Z,10.17
2017-12-03T03:34:19.069Z,9.60
2017-12-03T03:35:20.417Z,10.40
2017-12-03T03:36:21.767Z,11.30
2017-12-03T03:37:23.110Z,10.03
2017-12-03T03:38:24.725Z,10.63
2017-12-03T03:39:26.035Z,10.83
2017-12-03T03:40:27.373Z,11.07
2017-12-03T03:41:28.691Z,11.90
2017-12-03T03:42:30.011Z,12.30
2017-12-03T03:43:32.319Z,12.10
2017-12-03T03:44:33.643Z,12.30
2017-12-03T03:45:34.961Z,11.83
2017-12-03T03:46:37.023Z,11.90
2017-12-03T03:47:39.098Z,10.53
2017-12-03T03:48:40.703Z,11.30
2017-12-03T03:49:41.998Z,10.97
2017-12-03T03:50:43.328Z,10.77
2017-12-03T03:51:44.677Z,10.80
2017-12-03T03:52:46.727Z,10.40
2017-12-03T03:53:49.115Z,10.87
2017-12-03T03:54:50.438Z,10.67
2017-12-03T03:55:52.557Z,10.67
2017-12-03T03:56:53.899Z,11.40
2017-12-03T03:57:55.208Z,10.73
2017-12-03T03:58:56.574Z,11.77
2017-12-03T03:59:57.875Z,10.63
2017-12-03T04:00:59.975Z,12.77
2017-12-03T04:02:01.329Z,10.83
2017-12-03T04:03:03.403Z,10.70
2017-12-03T04:04:04.943Z,11.27
2017-12-03T04:05:07.032Z,11.07
2017-12-03T04:06:08.375Z,10.53
2017-12-03T04:07:09.679Z,11.27
2017-12-03T04:08:11.027Z,11.73
2017-12-03T04:09:12.619Z,11.23
2017-12-03T04:10:14.686Z,10.33
2017-12-03T04:11:16.755Z,11.17
2017-12-03T04:12:18.095Z,11.70
2017-12-03T04:13:20.207Z,12.47
2017-12-03T04:14:21.835Z,13.00
2017-12-03T04:15:23.191Z,11.83
2017-12-03T04:16:24.532Z,12.57
2017-12-03T04:17:25.853Z,12.40
2017-12-03T04:18:27.232Z,10.43
2017-12-03T04:19:28.815Z,10.20
2017-12-03T04:20:30.887Z,11.13
2017-12-03T04:21:32.935Z,11.27
2017-12-03T04:22:35.015Z,11.90
2017-12-03T04:23:37.065Z,10.33
2017-12-03T04:24:38.755Z,10.60
2017-12-03T04:25:40.099Z,11.07
2017-12-03T04:26:41.425Z,11.97
2017-12-03T04:27:42.783Z,11.67
2017-12-03T04:28:44.088Z,11.90
2017-12-03T04:29:46.487Z,12.23
2017-12-03T04:30:47.815Z,10.87
2017-12-03T04:31:49.159Z,10.83
2017-12-03T04:32:50.537Z,10.27
2017-12-03T04:33:51.859Z,12.37
2017-12-03T04:34:53.405Z,11.70
2017-12-03T04:35:54.735Z,11.80
2017-12-03T04:36:56.099Z,12.00
2017-12-03T04:37:57.427Z,11.17
2017-12-03T04:38:58.763Z,10.83
2017-12-03T04:40:00.880Z,10.50
2017-12-03T04:41:02.217Z,10.40
2017-12-03T04:42:03.595Z,11.00
2017-12-03T04:43:05.671Z,11.97
2017-12-03T04:44:07.783Z,12.37
2017-12-03T04:45:09.376Z,12.43
2017-12-03T04:46:11.524Z,12.57
2017-12-03T04:47:12.911Z,13.30
2017-12-03T04:48:14.255Z,11.97
2017-12-03T04:49:15.623Z,11.53
2017-12-03T04:50:17.256Z,11.33
2017-12-03T04:51:18.635Z,10.63
2017-12-03T04:52:19.997Z,9.67
2017-12-03T04:53:21.356Z,10.00
2017-12-03T04:54:23.479Z,10.80
2017-12-03T04:55:25.112Z,10.27
2017-12-03T04:56:26.471Z,10.53
2017-12-03T04:57:28.582Z,10.53
2017-12-03T04:58:30.667Z,11.57
2017-12-03T04:59:32.055Z,10.50
2017-12-03T05:00:33.642Z,10.07
2017-12-03T05:01:34.995Z,10.77
2017-12-03T05:02:36.371Z,9.40
2017-12-03T05:03:37.792Z,9.10
2017-12-03T05:04:39.107Z,8.97
2017-12-03T05:05:41.601Z,9.80
2017-12-03T05:06:43.701Z,10.53
2017-12-03T05:07:45.081Z,10.40
2017-12-03T05:08:47.195Z,11.53
2017-12-03T05:09:48.535Z,11.00
2017-12-03T05:10:50.279Z,11.10
2017-12-03T05:11:51.607Z,11.17
2017-12-03T05:12:52.947Z,10.97
2017-12-03T05:13:54.312Z,11.50
2017-12-03T05:14:55.738Z,10.77
2017-12-03T05:15:58.137Z,9.63
2017-12-03T05:16:59.479Z,10.70
2017-12-03T05:18:00.874Z,11.13
2017-12-03T05:19:02.976Z,10.37
2017-12-03T05:20:04.339Z,12.17
2017-12-03T05:21:05.971Z,10.87
2017-12-03T05:22:07.307Z,10.87
2017-12-03T05:23:08.642Z,12.13
2017-12-03T05:24:09.979Z,13.17
2017-12-03T05:25:11.309Z,11.83
2017-12-03T05:26:13.711Z,11.43
2017-12-03T05:27:15.068Z,11.60
2017-12-03T05:28:16.396Z,10.57
2017-12-03T05:29:17.736Z,11.77
2017-12-03T05:30:19.088Z,11.23
2017-12-03T05:31:20.731Z,10.87
2017-12-03T05:32:22.061Z,10.30
2017-12-03T05:33:23.407Z,9.93
2017-12-03T05:34:24.732Z,10.37
2017-12-03T05:35:26.884Z,10.63
2017-12-03T05:36:28.495Z,9.33
2017-12-03T05:37:29.851Z,9.10
2017-12-03T05:38:31.211Z,9.13
2017-12-03T05:39:33.309Z,9.50
2017-12-03T05:40:34.651Z,10.00
2017-12-03T05:41:36.247Z,9.53
2017-12-03T05:42:37.619Z,11.70
2017-12-03T05:43:39.707Z,11.83
2017-12-03T05:44:41.799Z,11.37
2017-12-03T05:45:43.144Z,10.63
2017-12-03T05:46:44.680Z,11.40
2017-12-03T05:47:45.996Z,10.73
2017-12-03T05:48:47.327Z,10.27
2017-12-03T05:49:49.411Z,10.23
2017-12-03T05:50:50.763Z,10.83
2017-12-03T05:51:52.415Z,10.53
2017-12-03T05:52:53.759Z,11.13
2017-12-03T05:53:55.096Z,11.30
2017-12-03T05:54:56.475Z,10.80
2017-12-03T05:55:57.823Z,10.80
2017-12-03T05:57:00.139Z,10.60
2017-12-03T05:58:01.502Z,10.30
2017-12-03T05:59:02.837Z,9.73
2017-12-03T06:00:04.183Z,13.73
2017-12-03T06:01:05.536Z,15.03
2017-12-03T06:02:07.043Z,13.20
2017-12-03T06:03:09.171Z,12.33
2017-12-03T06:04:10.509Z,11.90
2017-12-03T06:05:11.874Z,12.30
2017-12-03T06:06:14.697Z,11.83
2017-12-03T06:07:16.368Z,11.47
2017-12-03T06:08:17.701Z,11.33
2017-12-03T06:09:19.032Z,10.97
2017-12-03T06:10:20.382Z,10.73
2017-12-03T06:11:21.751Z,10.13
2017-12-03T06:12:23.373Z,9.67
2017-12-03T06:13:24.716Z,9.87
2017-12-03T06:14:26.112Z,9.63
2017-12-03T06:15:27.511Z,10.90
2017-12-03T06:16:28.872Z,9.90
2017-12-03T06:17:30.512Z,9.97
2017-12-03T06:18:31.894Z,10.30
2017-12-03T06:19:33.992Z,10.80
2017-12-03T06:20:35.361Z,9.97
2017-12-03T06:21:36.740Z,9.37
2017-12-03T06:22:38.136Z,9.57
2017-12-03T06:23:39.522Z,9.83
2017-12-03T06:24:40.916Z,9.37
2017-12-03T06:25:42.271Z,10.10
2017-12-03T06:26:43.613Z,10.00
2017-12-03T06:27:45.000Z,10.30
2017-12-03T06:28:46.362Z,9.50
2017-12-03T06:29:48.462Z,9.77
2017-12-03T06:30:49.876Z,11.20
2017-12-03T06:31:51.976Z,10.73
2017-12-03T06:32:53.648Z,11.40
2017-12-03T06:33:55.028Z,11.17
2017-12-03T06:34:57.108Z,10.47
2017-12-03T06:35:59.231Z,10.60
2017-12-03T06:37:00.596Z,10.00
2017-12-03T06:38:01.962Z,10.73
2017-12-03T06:39:03.398Z,9.73
2017-12-03T06:40:05.511Z,10.67
2017-12-03T06:41:06.875Z,10.73
2017-12-03T06:42:08.240Z,11.13
2017-12-03T06:43:10.779Z,10.47
2017-12-03T06:44:12.184Z,9.87
2017-12-03T06:45:13.596Z,11.33
2017-12-03T06:46:15.710Z,10.30
2017-12-03T06:47:17.079Z,11.93
2017-12-03T06:48:18.772Z,11.27
2017-12-03T06:49:20.895Z,13.60
2017-12-03T06:50:22.323Z,13.20
2017-12-03T06:51:23.686Z,12.67
2017-12-03T06:52:25.068Z,12.87
2017-12-03T06:53:27.200Z,12.90
2017-12-03T06:54:28.567Z,15.13
2017-12-03T06:55:30.680Z,13.93
2017-12-03T06:56:32.057Z,14.63
2017-12-03T06:57:33.421Z,17.27
2017-12-03T06:58:35.556Z,19.07
2017-12-03T06:59:36.952Z,15.97
2017-12-03T07:00:38.272Z,16.63
2017-12-03T07:01:40.352Z,18.00
2017-12-03T07:02:41.716Z,16.83
2017-12-03T07:03:43.063Z,17.63
2017-12-03T07:04:44.416Z,18.93
2017-12-03T07:05:45.816Z,18.13
2017-12-03T07:06:47.898Z,19.10
2017-12-03T07:07:49.248Z,17.43
2017-12-03T07:08:51.031Z,17.80
2017-12-03T07:09:52.358Z,18.33
2017-12-03T07:10:53.724Z,19.20
2017-12-03T07:11:56.554Z,19.07
2017-12-03T07:12:57.903Z,20.87
2017-12-03T07:13:59.523Z,20.37
2017-12-03T07:15:01.596Z,19.93
2017-12-03T07:16:02.936Z,20.13
2017-12-03T07:17:04.331Z,18.93
2017-12-03T07:18:05.766Z,19.30
2017-12-03T07:19:07.422Z,19.40
2017-12-03T07:20:08.788Z,19.97
2017-12-03T07:21:10.181Z,17.37
2017-12-03T07:22:11.515Z,17.73
2017-12-03T07:23:12.881Z,17.80
2017-12-03T07:24:14.266Z,16.17
2017-12-03T07:25:15.640Z,18.00
2017-12-03T07:26:17.720Z,17.87
2017-12-03T07:27:19.064Z,17.90
2017-12-03T07:28:20.440Z,17.47
2017-12-03T07:29:21.820Z,17.23
2017-12-03T07:30:23.952Z,18.13
2017-12-03T07:31:25.358Z,18.40
2017-12-03T07:32:26.716Z,16.27
2017-12-03T07:33:28.097Z,16.73
2017-12-03T07:34:29.766Z,16.43
2017-12-03T07:35:31.900Z,17.57
2017-12-03T07:36:33.264Z,16.20
2017-12-03T07:37:35.378Z,16.47
2017-12-03T07:38:36.779Z,16.10
2017-12-03T07:39:39.222Z,16.23
2017-12-03T07:40:40.808Z,17.13
2017-12-03T07:41:42.327Z,16.40
2017-12-03T07:42:43.906Z,17.17
2017-12-03T07:43:46.160Z,15.80
2017-12-03T07:44:48.498Z,19.30
2017-12-03T07:45:50.020Z,19.27
2017-12-03T07:46:51.700Z,20.47
2017-12-03T07:47:53.251Z,22.17
2017-12-03T07:48:54.932Z,19.83
2017-12-03T07:49:57.162Z,18.47
2017-12-03T07:50:58.759Z,16.73
2017-12-03T07:52:00.288Z,17.43
2017-12-03T07:53:02.459Z,21.00
2017-12-03T07:54:03.980Z,18.40
2017-12-03T07:55:05.765Z,18.17
2017-12-03T07:56:07.416Z,19.17
2017-12-03T07:57:08.995Z,18.27
2017-12-03T07:58:10.394Z,20.37
2017-12-03T07:59:12.648Z,17.33
2017-12-03T08:00:14.197Z,17.43
2017-12-03T08:01:15.762Z,17.37
2017-12-03T08:02:17.910Z,17.73
2017-12-03T08:03:20.064Z,16.83
2017-12-03T08:04:21.439Z,17.40
2017-12-03T08:05:22.902Z,16.97
2017-12-03T08:06:24.315Z,21.07
2017-12-03T08:07:26.680Z,20.00
2017-12-03T08:08:28.158Z,18.90
2017-12-03T08:09:29.562Z,19.37
2017-12-03T08:10:31.266Z,19.07
2017-12-03T08:11:32.624Z,18.87
2017-12-03T08:12:33.989Z,19.10
2017-12-03T08:13:35.358Z,19.80
2017-12-03T08:14:37.451Z,20.73
2017-12-03T08:15:38.831Z,21.30
2017-12-03T08:16:40.164Z,20.30
2017-12-03T08:17:41.530Z,19.03
2017-12-03T08:18:43.794Z,18.60
2017-12-03T08:19:45.170Z,20.23
2017-12-03T08:20:46.559Z,19.80
2017-12-03T08:21:47.930Z,18.20
2017-12-03T08:22:49.309Z,20.50
2017-12-03T08:23:51.428Z,18.63
2017-12-03T08:24:52.787Z,20.40
2017-12-03T08:25:54.156Z,19.13
2017-12-03T08:26:56.283Z,18.03
2017-12-03T08:27:57.693Z,19.73
2017-12-03T08:28:59.076Z,19.47
2017-12-03T08:30:00.454Z,18.87
2017-12-03T08:31:02.556Z,19.27
2017-12-03T08:32:03.912Z,17.60
2017-12-03T08:33:05.264Z,18.23
2017-12-03T08:34:06.592Z,18.40
2017-12-03T08:35:07.976Z,19.40
2017-12-03T08:36:10.378Z,21.17
2017-12-03T08:37:11.726Z,21.57
2017-12-03T08:38:13.104Z,21.23
2017-12-03T08:39:15.220Z,20.03
2017-12-03T08:40:16.590Z,20.00
2017-12-03T08:41:17.992Z,18.40
2017-12-03T08:42:20.136Z,18.00
2017-12-03T08:43:21.530Z,21.03
2017-12-03T08:44:22.892Z,19.10
2017-12-03T08:45:24.264Z,18.17
2017-12-03T08:46:25.982Z,19.43
2017-12-03T08:47:27.342Z,19.37
2017-12-03T08:48:28.718Z,19.30
2017-12-03T08:49:31.476Z,19.60
2017-12-03T08:50:32.827Z,19.63
2017-12-03T08:51:34.552Z,19.23
2017-12-03T08:52:35.928Z,18.40
2017-12-03T08:53:37.299Z,19.50
2017-12-03T08:54:39.356Z,20.63
2017-12-03T08:55:41.480Z,20.17
2017-12-03T08:56:43.248Z,18.50
2017-12-03T08:57:44.616Z,18.30
2017-12-03T08:58:46.685Z,18.90
2017-12-03T08:59:48.051Z,21.00
2017-12-03T09:00:49.404Z,19.63
2017-12-03T09:01:51.034Z,20.63
2017-12-03T09:02:52.436Z,18.90
2017-12-03T09:03:53.788Z,18.27
2017-12-03T09:04:55.145Z,17.33
2017-12-03T09:05:57.232Z,17.70
2017-12-03T09:06:58.862Z,17.87
2017-12-03T09:08:00.213Z,17.47
2017-12-03T09:09:01.571Z,16.70
2017-12-03T09:10:02.931Z,19.67
2017-12-03T09:11:04.285Z,18.20
2017-12-03T09:12:05.932Z,18.27
2017-12-03T09:13:07.322Z,18.73
2017-12-03T09:14:09.401Z,17.33
2017-12-03T09:15:10.793Z,18.00
2017-12-03T09:16:12.168Z,20.67
2017-12-03T09:17:13.800Z,20.40
2017-12-03T09:18:15.159Z,19.27
2017-12-03T09:19:16.501Z,20.83
2017-12-03T09:20:18.580Z,19.60
2017-12-03T09:21:20.720Z,22.10
2017-12-03T09:22:22.100Z,22.43
2017-12-03T09:23:23.452Z,21.23
2017-12-03T09:24:24.800Z,19.73
2017-12-03T09:25:26.194Z,20.23
2017-12-03T09:26:27.683Z,19.93
2017-12-03T09:27:29.352Z,18.03
2017-12-03T09:28:30.724Z,18.83
2017-12-03T09:29:32.094Z,17.97
2017-12-03T09:30:34.252Z,18.93
2017-12-03T09:31:36.379Z,16.77
2017-12-03T09:32:37.825Z,16.47
2017-12-03T09:33:39.153Z,18.93
2017-12-03T09:34:40.512Z,18.37
2017-12-03T09:35:41.862Z,15.97
2017-12-03T09:36:43.194Z,16.73
2017-12-03T09:37:44.840Z,17.23
2017-12-03T09:38:46.180Z,19.90
2017-12-03T09:39:48.882Z,19.00
2017-12-03T09:40:50.269Z,18.33
2017-12-03T09:41:52.492Z,20.10
2017-12-03T09:42:53.878Z,19.17
2017-12-03T09:43:55.232Z,19.33
2017-12-03T09:44:56.555Z,21.53
2017-12-03T09:46:01.216Z,21.77
2017-12-03T09:47:03.067Z,19.77
2017-12-03T09:48:05.336Z,21.67
2017-12-03T09:49:06.696Z,19.90
2017-12-03T09:50:08.092Z,18.73
2017-12-03T09:51:10.239Z,19.47
2017-12-03T09:52:12.314Z,19.00
2017-12-03T09:53:14.778Z,19.27
2017-12-03T09:54:16.892Z,23.37
2017-12-03T09:55:18.272Z,22.77
2017-12-03T09:56:20.374Z,23.03
2017-12-03T09:57:21.766Z,22.20
2017-12-03T09:58:23.419Z,21.67
2017-12-03T09:59:25.506Z,18.53
2017-12-03T10:00:26.952Z,18.30
2017-12-03T10:01:29.056Z,17.30
2017-12-03T10:02:31.126Z,16.73
2017-12-03T10:13:12.773Z,12.97
2017-12-03T10:14:14.918Z,15.20
2017-12-03T10:15:17.008Z,15.90
2017-12-03T10:16:18.372Z,16.40
2017-12-03T10:17:19.751Z,14.73
2017-12-03T10:18:21.374Z,16.70
2017-12-03T10:19:22.722Z,16.50
2017-12-03T10:20:24.132Z,15.23
2017-12-03T10:21:25.500Z,16.73
2017-12-03T10:22:26.816Z,16.13
2017-12-03T10:23:28.954Z,16.63
2017-12-03T10:24:31.060Z,16.10
2017-12-03T10:25:32.446Z,15.80
2017-12-03T10:26:33.820Z,16.63
2017-12-03T10:27:35.922Z,15.13
2017-12-03T10:28:37.360Z,16.30
2017-12-03T10:29:38.732Z,14.77
2017-12-03T10:30:40.302Z,15.30
2017-12-03T10:31:41.741Z,14.63
2017-12-03T10:32:43.128Z,15.00
2017-12-03T10:33:44.762Z,15.47
2017-12-03T10:34:46.864Z,14.97
2017-12-03T10:35:48.232Z,13.83
2017-12-03T10:36:49.574Z,14.30
2017-12-03T10:38:02.980Z,13.83
2017-12-03T10:39:04.383Z,15.43
2017-12-03T10:40:06.468Z,15.37
2017-12-03T10:41:07.832Z,14.40
2017-12-03T10:42:09.218Z,15.20
2017-12-03T10:43:11.300Z,16.40
2017-12-03T10:44:13.070Z,14.80
2017-12-03T10:45:14.412Z,14.57
2017-12-03T10:46:15.841Z,14.60
2017-12-03T10:47:17.928Z,14.53
2017-12-03T10:48:19.570Z,13.53
2017-12-03T10:49:21.212Z,12.97
2017-12-03T10:50:22.844Z,12.53
2017-12-03T10:51:24.232Z,12.87
2017-12-03T10:52:25.572Z,13.43
2017-12-03T10:53:26.923Z,12.83
2017-12-03T10:54:28.589Z,12.47
2017-12-03T10:55:29.926Z,13.43
2017-12-03T10:56:31.280Z,13.73
2017-12-03T10:57:32.659Z,13.23
2017-12-03T10:58:34.712Z,12.53
2017-12-03T10:59:36.787Z,13.73
2017-12-03T11:00:38.926Z,11.90
2017-12-03T11:01:40.264Z,12.57
2017-12-03T11:02:41.616Z,13.03
2017-12-03T11:03:42.955Z,12.70
2017-12-03T11:04:44.340Z,12.43
2017-12-03T11:05:45.748Z,12.53
2017-12-03T11:06:47.340Z,12.60
2017-12-03T11:07:48.746Z,13.07
2017-12-03T11:08:50.116Z,13.43
2017-12-03T11:09:51.800Z,17.23
2017-12-03T11:10:53.166Z,14.30
2017-12-03T11:11:54.523Z,12.93
2017-12-03T11:12:56.647Z,13.73
2017-12-03T11:13:57.964Z,14.83
2017-12-03T11:14:59.613Z,14.27
2017-12-03T11:16:00.932Z,14.07
2017-12-03T11:17:03.100Z,16.03
2017-12-03T11:18:05.188Z,16.03
2017-12-03T11:19:06.601Z,16.53
2017-12-03T11:20:08.688Z,16.37
2017-12-03T11:21:10.009Z,14.90
2017-12-03T11:22:12.108Z,13.80
2017-12-03T11:23:13.460Z,13.67
2017-12-03T11:24:14.784Z,15.27
2017-12-03T11:25:16.152Z,15.43
2017-12-03T11:26:17.490Z,15.63
2017-12-03T11:27:18.812Z,16.63
2017-12-03T11:28:20.168Z,16.87
2017-12-03T11:29:21.524Z,19.23
2017-12-03T11:30:23.913Z,18.70
2017-12-03T11:31:26.020Z,17.50
2017-12-03T11:32:27.460Z,18.70
2017-12-03T11:33:29.497Z,16.40
2017-12-03T11:34:30.881Z,15.77
2017-12-03T11:35:32.253Z,16.33
2017-12-03T11:36:33.625Z,16.37
2017-12-03T11:37:35.037Z,15.97
2017-12-03T11:38:36.460Z,15.97
2017-12-03T11:39:37.980Z,17.40
2017-12-03T11:40:40.688Z,18.93
2017-12-03T11:41:42.322Z,19.03
2017-12-03T11:42:44.722Z,20.20
2017-12-03T11:43:48.680Z,19.53
2017-12-03T11:44:50.658Z,20.63
2017-12-03T11:45:52.077Z,18.53
2017-12-03T11:46:56.358Z,19.83
2017-12-03T11:47:57.874Z,19.23
2017-12-03T11:48:59.203Z,19.33
2017-12-03T11:50:01.416Z,20.40
2017-12-03T11:51:04.092Z,18.33
2017-12-03T11:52:05.480Z,17.77
2017-12-03T11:53:07.632Z,16.93
2017-12-03T11:54:11.252Z,16.33
2017-12-03T11:55:12.697Z,15.53
2017-12-03T11:56:15.144Z,16.43
2017-12-03T11:57:17.409Z,16.20
2017-12-03T11:58:19.547Z,15.47
2017-12-03T11:59:21.103Z,15.10
2017-12-03T12:00:23.346Z,15.83
2017-12-03T12:01:27.860Z,14.77
2017-12-03T12:02:29.282Z,14.80
2017-12-03T12:03:30.667Z,13.73
2017-12-03T12:04:32.032Z,14.37
2017-12-03T12:05:34.538Z,14.50
2017-12-03T12:06:36.237Z,12.83
2017-12-03T12:07:37.636Z,15.43
2017-12-03T12:08:39.798Z,13.27
2017-12-03T12:09:41.190Z,14.37
2017-12-03T12:10:42.576Z,15.17
2017-12-03T12:11:44.014Z,14.23
2017-12-03T12:12:46.254Z,13.83
2017-12-03T12:13:48.652Z,15.27
2017-12-03T12:14:50.047Z,13.60
2017-12-03T12:15:51.360Z,13.83
2017-12-03T12:16:52.729Z,15.07
2017-12-03T12:17:54.088Z,13.97
2017-12-03T12:18:55.424Z,15.13
2017-12-03T12:19:56.756Z,14.30
2017-12-03T12:20:58.075Z,14.73
2017-12-03T12:21:59.736Z,16.27
2017-12-03T12:23:04.105Z,15.60
2017-12-03T12:24:07.014Z,15.47
2017-12-03T12:25:10.646Z,17.03
2017-12-03T12:26:11.999Z,15.37
2017-12-03T12:27:13.354Z,15.03
2017-12-03T12:28:14.664Z,15.13
2017-12-03T12:29:16.002Z,15.10
2017-12-03T12:30:17.305Z,16.30
2017-12-03T12:31:19.404Z,18.80
2017-12-03T12:32:21.322Z,20.90
2017-12-03T12:33:23.072Z,22.50
2017-12-03T12:34:25.642Z,23.53
2017-12-03T12:35:27.234Z,24.03
2017-12-03T12:36:28.834Z,23.73
2017-12-03T12:37:30.230Z,23.80
2017-12-03T12:38:31.607Z,23.83
2017-12-03T12:39:32.988Z,26.80
2017-12-03T12:40:35.074Z,26.67
2017-12-03T12:41:36.429Z,23.10
2017-12-03T12:43:45.010Z,21.67
2017-12-03T12:44:46.688Z,21.23
2017-12-03T12:45:48.104Z,20.80
2017-12-03T12:46:50.232Z,20.43
2017-12-03T12:47:51.979Z,19.23
2017-12-03T12:48:53.669Z,20.70
2017-12-03T12:49:56.108Z,19.67
2017-12-03T12:50:57.980Z,18.77
2017-12-03T12:52:00.442Z,18.97
2017-12-03T12:53:02.566Z,17.90
2017-12-03T12:54:04.318Z,17.30
2017-12-03T12:55:06.136Z,16.70
2017-12-03T12:56:07.914Z,17.13
2017-12-03T12:57:09.332Z,17.83
2017-12-03T12:58:10.965Z,20.87
2017-12-03T12:59:12.342Z,20.70
2017-12-03T13:00:14.432Z,20.10
2017-12-03T13:01:15.766Z,24.33
2017-12-03T13:02:17.108Z,25.10
2017-12-03T13:03:18.753Z,24.83
2017-12-03T13:04:20.124Z,24.47
2017-12-03T13:05:21.472Z,22.33
2017-12-03T13:06:22.822Z,21.90
2017-12-03T13:07:24.140Z,20.83
2017-12-03T13:08:25.499Z,20.17
2017-12-03T13:09:26.832Z,20.77
2017-12-03T13:10:28.156Z,22.47
2017-12-03T13:11:29.476Z,21.00
2017-12-03T13:12:31.550Z,21.37
2017-12-03T13:13:33.652Z,19.07
2017-12-03T13:14:34.957Z,19.53
2017-12-03T13:15:37.036Z,19.60
2017-12-03T13:16:38.354Z,19.23
2017-12-03T13:17:40.418Z,19.27
2017-12-03T13:18:42.489Z,18.43
2017-12-03T13:19:43.784Z,19.00
2017-12-03T13:20:45.074Z,19.33
2017-12-03T13:21:46.445Z,18.30
2017-12-03T13:22:47.776Z,16.43
2017-12-03T13:23:49.160Z,17.00
2017-12-03T13:24:51.254Z,16.53
2017-12-03T13:25:53.374Z,16.20